Time;durP1;ratioP1;P1;durP2;ratioP2;P2;SDS_P1;SDS_P2;PMS_P1;PMS_P2;Temp;Humidity;BMP_temperature;BMP_pressure;BME280_temperature;BME280_humidity;BME280_pressure;Samples;Min_cycle;Max_cycle;Signal;HPM_P1;HPM_P2
2022/04/15 00:01:24;;;;;;;0.00;0.00;;;7.70;99.90;;;;;;5039469;28;20139;-85
2022/04/15 00:03:50;;;;;;;0.00;0.00;;;7.70;99.90;;;;;;5039415;28;20088;-85
2022/04/15 00:06:24;;;;;;;0.57;0.38;;;7.70;99.90;;;;;;5039626;28;20106;-85
2022/04/15 00:08:50;;;;;;;0.00;0.00;;;7.70;99.90;;;;;;5056558;28;20113;-85
2022/04/15 00:11:16;;;;;;;0.25;0.25;;;7.60;99.90;;;;;;5056315;28;20052;-85
2022/04/15 00:13:42;;;;;;;0.57;0.00;;;7.70;99.90;;;;;;5039638;28;20052;-85
2022/04/15 00:16:09;;;;;;;0.00;0.00;;;7.60;99.90;;;;;;5039363;28;20051;-85
2022/04/15 00:18:36;;;;;;;0.00;0.00;;;7.50;99.90;;;;;;5055703;28;20450;-85
2022/04/15 00:21:03;;;;;;;0.00;0.00;;;7.50;99.90;;;;;;5039403;28;20044;-85
2022/04/15 00:23:30;;;;;;;0.00;0.00;;;7.50;99.90;;;;;;5056253;28;20044;-85
2022/04/15 00:25:57;;;;;;;0.00;0.00;;;8.70;99.90;;;;;;5039822;28;20049;-85
2022/04/15 00:28:24;;;;;;;0.00;0.00;;;7.30;99.90;;;;;;5055689;28;20040;-85
2022/04/15 00:30:50;;;;;;;0.00;0.00;;;7.40;99.90;;;;;;5055926;28;20056;-85
2022/04/15 00:33:15;;;;;;;0.00;0.00;;;7.30;99.90;;;;;;5039045;28;20040;-85
2022/04/15 00:35:41;;;;;;;0.00;0.00;;;6.90;99.90;;;;;;5056170;28;20391;-84
2022/04/15 00:38:07;;;;;;;0.00;0.00;;;7.40;99.90;;;;;;5039679;28;20044;-84
2022/04/15 00:40:34;;;;;;;0.00;0.00;;;7.10;99.90;;;;;;5055699;28;20549;-85
2022/04/15 00:43:00;;;;;;;0.20;0.20;;;7.20;99.90;;;;;;5039385;28;20079;-84
2022/04/15 00:45:26;;;;;;;0.85;0.13;;;7.10;99.90;;;;;;5055496;28;20057;-85
2022/04/15 00:47:55;;;;;;;0.00;0.00;;;7.10;99.90;;;;;;5055720;28;20130;-84
2022/04/15 00:50:29;;;;;;;0.32;0.10;;;7.10;99.90;;;;;;5054862;28;20056;-85
2022/04/15 00:53:01;;;;;;;0.30;0.00;;;7.10;99.90;;;;;;5037551;28;20045;-83
2022/04/15 00:55:28;;;;;;;0.15;0.08;;;6.90;99.90;;;;;;5053674;28;20048;-84
2022/04/15 00:58:01;;;;;;;0.03;0.00;;;7.10;99.90;;;;;;5039172;28;20396;-85
2022/04/15 01:00:29;;;;;;;0.00;0.00;;;7.00;99.90;;;;;;5038974;28;20048;-84
2022/04/15 01:03:00;;;;;;;0.00;0.00;;;6.90;99.90;;;;;;5055838;28;20125;-85
2022/04/15 01:05:27;;;;;;;0.00;0.00;;;6.90;99.90;;;;;;5038947;28;20084;-85
2022/04/15 01:07:57;;;;;;;0.00;0.00;;;6.80;99.90;;;;;;5038602;28;20127;-84
2022/04/15 01:10:28;;;;;;;0.00;0.00;;;6.80;99.90;;;;;;5039016;28;20086;-84
2022/04/15 01:12:56;;;;;;;0.00;0.00;;;6.80;99.90;;;;;;5055890;28;20044;-84
2022/04/15 01:15:24;;;;;;;0.00;0.00;;;6.70;99.90;;;;;;5038979;28;20044;-85
2022/04/15 01:17:50;;;;;;;0.20;0.00;;;6.70;99.90;;;;;;5040795;28;20097;-85
2022/04/15 01:20:16;;;;;;;0.00;0.00;;;6.70;99.90;;;;;;5042731;28;20128;-85
2022/04/15 01:22:47;;;;;;;0.00;0.00;;;6.90;99.90;;;;;;5042578;28;20084;-85
2022/04/15 01:25:15;;;;;;;0.00;0.00;;;6.60;99.90;;;;;;5042795;28;20044;-85
2022/04/15 01:27:46;;;;;;;0.10;0.00;;;6.60;99.90;;;;;;5059387;28;20108;-84
2022/04/15 01:30:18;;;;;;;0.00;0.00;;;6.60;99.90;;;;;;5059179;28;20040;-84
2022/04/15 01:32:44;;;;;;;0.10;0.00;;;6.60;99.90;;;;;;5059560;28;20154;-85
2022/04/15 01:35:11;;;;;;;1.17;0.00;;;6.50;99.90;;;;;;5042585;28;20399;-85
2022/04/15 01:37:38;;;;;;;0.10;0.00;;;6.50;99.90;;;;;;5042254;28;20048;-84
2022/04/15 01:40:06;;;;;;;0.00;0.00;;;6.70;99.90;;;;;;5042453;28;20048;-84
2022/04/15 01:42:33;;;;;;;0.00;0.00;;;6.60;99.90;;;;;;5058630;28;20062;-85
2022/04/15 01:44:59;;;;;;;0.00;0.00;;;6.60;99.90;;;;;;5058848;28;20136;-85
2022/04/15 01:47:25;;;;;;;0.20;0.20;;;7.10;99.90;;;;;;5059082;28;20531;-85
2022/04/15 01:49:50;;;;;;;0.00;0.00;;;7.30;99.90;;;;;;5042009;28;20384;-85
2022/04/15 01:52:17;;;;;;;0.10;0.10;;;6.70;99.90;;;;;;5058787;28;20082;-84
2022/04/15 01:54:42;;;;;;;0.00;0.00;;;6.70;99.90;;;;;;5042036;28;20056;-84
2022/04/15 01:57:08;;;;;;;0.00;0.00;;;6.70;99.90;;;;;;5058701;28;20048;-84
2022/04/15 01:59:34;;;;;;;0.00;0.00;;;6.80;99.90;;;;;;5041568;28;20059;-85
2022/04/15 02:01:59;;;;;;;0.00;0.00;;;6.90;99.90;;;;;;5058213;28;20098;-84
2022/04/15 02:04:26;;;;;;;0.00;0.00;;;6.90;99.90;;;;;;5058774;28;20048;-84
2022/04/15 02:06:52;;;;;;;0.00;0.00;;;7.00;99.90;;;;;;5058366;28;20048;-84
2022/04/15 02:09:18;;;;;;;0.00;0.00;;;7.00;99.90;;;;;;5058207;28;20039;-84
2022/04/15 02:11:45;;;;;;;0.00;0.00;;;7.10;99.90;;;;;;5041712;28;20127;-84
2022/04/15 02:14:12;;;;;;;0.08;0.00;;;7.10;99.90;;;;;;5058543;28;20071;-84
2022/04/15 02:16:39;;;;;;;0.63;0.57;;;7.00;99.90;;;;;;5041963;28;20055;-85
2022/04/15 02:19:08;;;;;;;0.10;0.00;;;7.20;99.90;;;;;;5041581;28;20491;-85
2022/04/15 02:21:33;;;;;;;2.08;0.85;;;7.30;99.90;;;;;;5057991;28;20060;-85
2022/04/15 02:23:59;;;;;;;0.00;0.00;;;7.20;99.90;;;;;;5057799;28;20044;-84
2022/04/15 02:26:25;;;;;;;0.00;0.00;;;7.20;99.90;;;;;;5058845;28;20045;-85
2022/04/15 02:28:51;;;;;;;0.00;0.00;;;7.20;99.90;;;;;;5057946;28;20051;-84
2022/04/15 02:31:17;;;;;;;0.00;0.00;;;7.40;99.90;;;;;;5057945;28;20052;-84
2022/04/15 02:33:43;;;;;;;0.32;0.00;;;7.20;99.90;;;;;;5057895;28;20127;-84
2022/04/15 02:36:08;;;;;;;0.00;0.00;;;7.30;99.90;;;;;;5057767;28;20041;-85
2022/04/15 02:38:35;;;;;;;0.00;0.00;;;7.30;99.90;;;;;;5058238;28;20102;-85
2022/04/15 02:41:03;;;;;;;0.00;0.00;;;7.30;99.90;;;;;;5041225;28;20042;-85
2022/04/15 02:43:35;;;;;;;0.00;0.00;;;7.30;99.90;;;;;;5040810;28;20063;-85
2022/04/15 02:46:03;;;;;;;0.00;0.00;;;7.40;99.90;;;;;;5041354;28;20056;-85
2022/04/15 02:48:32;;;;;;;0.00;0.00;;;7.40;99.90;;;;;;5057822;28;20083;-85
2022/04/15 02:50:59;;;;;;;0.47;0.20;;;7.40;99.90;;;;;;5057817;28;20443;-84
2022/04/15 02:53:25;;;;;;;0.00;0.00;;;7.40;99.90;;;;;;5040844;28;20044;-85
2022/04/15 02:55:52;;;;;;;0.00;0.00;;;7.40;99.90;;;;;;5041170;28;20056;-85
2022/04/15 02:58:18;;;;;;;0.00;0.00;;;7.50;99.90;;;;;;5041107;28;20491;-85
2022/04/15 03:00:43;;;;;;;0.20;0.00;;;7.50;99.90;;;;;;5040945;28;20056;-85
2022/04/15 03:03:09;;;;;;;0.00;0.00;;;7.50;99.90;;;;;;5040689;28;20075;-85
2022/04/15 03:05:39;;;;;;;0.00;0.00;;;7.50;99.90;;;;;;5041290;28;20052;-85
2022/04/15 03:08:05;;;;;;;0.10;0.10;;;7.50;99.90;;;;;;5040864;28;20052;-85
2022/04/15 03:10:31;;;;;;;0.00;0.00;;;7.60;99.90;;;;;;5057067;28;20055;-85
2022/04/15 03:12:57;;;;;;;0.00;0.00;;;7.60;99.90;;;;;;5057433;28;20048;-85
2022/04/15 03:15:23;;;;;;;0.00;0.00;;;7.60;99.90;;;;;;5057411;28;20128;-85
2022/04/15 03:17:49;;;;;;;0.45;0.40;;;7.70;99.90;;;;;;5057036;28;20153;-85
2022/04/15 03:20:14;;;;;;;0.00;0.00;;;7.60;99.90;;;;;;5040424;28;20545;-85
2022/04/15 03:22:42;;;;;;;0.03;0.00;;;7.60;99.90;;;;;;5057004;28;20052;-85
2022/04/15 03:25:10;;;;;;;0.00;0.00;;;7.60;99.90;;;;;;5057460;28;20086;-86
2022/04/15 03:27:36;;;;;;;0.88;0.00;;;7.60;99.90;;;;;;5057219;28;20038;-85
2022/04/15 03:30:04;;;;;;;0.30;0.00;;;7.70;99.90;;;;;;5056823;28;20106;-85
2022/04/15 03:32:30;;;;;;;0.00;0.00;;;7.60;99.90;;;;;;5056803;28;20055;-86
2022/04/15 03:34:57;;;;;;;0.10;0.00;;;7.60;99.90;;;;;;5056871;28;20480;-86
2022/04/15 03:37:23;;;;;;;0.00;0.00;;;7.60;99.90;;;;;;5039810;28;20076;-86
2022/04/15 03:39:49;;;;;;;0.00;0.00;;;7.60;99.90;;;;;;5039349;28;20083;-86
2022/04/15 03:42:15;;;;;;;0.00;0.00;;;7.60;99.90;;;;;;5038938;28;20052;-86
2022/04/15 03:44:48;;;;;;;0.00;0.00;;;7.70;99.90;;;;;;5039745;28;20052;-86
2022/04/15 03:47:14;;;;;;;0.00;0.00;;;7.70;99.90;;;;;;5057458;28;20098;-85
2022/04/15 03:49:40;;;;;;;0.00;0.00;;;7.70;99.90;;;;;;5040039;28;20059;-85
2022/04/15 03:52:06;;;;;;;0.05;0.00;;;7.70;99.90;;;;;;5040093;28;20036;-85
2022/04/15 03:54:32;;;;;;;0.00;0.00;;;7.80;99.90;;;;;;5040014;28;20101;-85
2022/04/15 03:56:58;;;;;;;0.00;0.00;;;7.80;99.90;;;;;;5040111;28;20041;-85
2022/04/15 03:59:23;;;;;;;0.10;0.10;;;7.70;99.90;;;;;;5056388;28;20485;-85
2022/04/15 04:01:49;;;;;;;0.10;0.10;;;7.70;99.90;;;;;;5056058;28;20526;-85
2022/04/15 04:04:15;;;;;;;0.93;0.57;;;7.70;99.90;;;;;;5040232;28;20064;-85
2022/04/15 04:06:43;;;;;;;0.00;0.00;;;7.70;99.90;;;;;;5056359;28;20044;-85
2022/04/15 04:09:09;;;;;;;0.00;0.00;;;7.70;99.90;;;;;;5056326;28;20417;-85
2022/04/15 04:11:35;;;;;;;6.43;0.98;;;7.70;99.90;;;;;;5056365;28;20406;-86
2022/04/15 04:14:00;;;;;;;0.25;0.25;;;7.80;99.90;;;;;;5039387;28;20111;-85
2022/04/15 04:16:26;;;;;;;0.00;0.00;;;7.80;99.90;;;;;;5039590;28;20052;-86
2022/04/15 04:18:52;;;;;;;0.68;0.20;;;7.80;99.90;;;;;;5056313;28;20080;-86
2022/04/15 04:21:20;;;;;;;0.17;0.10;;;7.80;99.90;;;;;;5039271;28;20542;-87
2022/04/15 04:23:48;;;;;;;0.05;0.00;;;7.90;99.90;;;;;;5039391;28;20052;-86
2022/04/15 04:26:14;;;;;;;0.00;0.00;;;7.90;99.90;;;;;;5039506;28;20044;-85
2022/04/15 04:28:40;;;;;;;0.00;0.00;;;7.90;99.90;;;;;;5055795;28;20044;-85
2022/04/15 04:31:05;;;;;;;0.00;0.00;;;7.80;99.90;;;;;;5039370;28;20036;-86
2022/04/15 04:33:31;;;;;;;0.00;0.00;;;7.80;99.90;;;;;;5038483;28;20470;-86
2022/04/15 04:35:57;;;;;;;0.00;0.00;;;7.90;99.90;;;;;;5055538;28;20098;-86
2022/04/15 04:38:22;;;;;;;0.00;0.00;;;7.90;99.90;;;;;;5038897;28;20558;-85
2022/04/15 04:40:48;;;;;;;0.00;0.00;;;7.80;99.90;;;;;;5055857;28;20195;-85
2022/04/15 04:43:14;;;;;;;0.00;0.00;;;7.90;99.90;;;;;;5039349;28;20062;-86
2022/04/15 04:45:40;;;;;;;0.00;0.00;;;7.80;99.90;;;;;;5038537;28;20439;-85
2022/04/15 04:48:09;;;;;;;0.00;0.00;;;7.90;99.90;;;;;;5038977;28;20057;-86
2022/04/15 04:50:35;;;;;;;0.05;0.00;;;7.90;99.90;;;;;;5039153;28;20063;-86
2022/04/15 04:53:00;;;;;;;6.60;0.82;;;7.80;99.90;;;;;;5055409;28;20057;-86
2022/04/15 04:55:28;;;;;;;0.00;0.00;;;7.90;99.90;;;;;;5039387;28;20052;-85
2022/04/15 04:57:54;;;;;;;0.00;0.00;;;7.90;99.90;;;;;;5055942;28;20051;-86
2022/04/15 05:00:20;;;;;;;0.00;0.00;;;7.90;99.90;;;;;;5055619;28;20361;-86
2022/04/15 05:02:46;;;;;;;0.00;0.00;;;7.90;99.90;;;;;;5038483;28;20072;-85
2022/04/15 05:05:12;;;;;;;0.00;0.00;;;7.90;99.90;;;;;;5055602;28;20048;-85
2022/04/15 05:07:38;;;;;;;0.00;0.00;;;7.90;99.90;;;;;;5038682;28;20139;-85
2022/04/15 05:10:05;;;;;;;0.13;0.13;;;8.00;99.90;;;;;;5056431;28;20131;-85
2022/04/15 05:12:31;;;;;;;0.00;0.00;;;8.00;99.90;;;;;;5038491;28;20456;-85
2022/04/15 05:14:57;;;;;;;0.00;0.00;;;8.00;99.90;;;;;;5039097;28;20086;-85
2022/04/15 05:17:22;;;;;;;0.10;0.00;;;8.00;99.90;;;;;;5055217;28;20052;-85
2022/04/15 05:19:48;;;;;;;0.00;0.00;;;8.00;99.90;;;;;;5055229;28;20598;-85
2022/04/15 05:22:14;;;;;;;0.60;0.30;;;8.10;99.90;;;;;;5055193;28;20462;-85
2022/04/15 05:24:40;;;;;;;0.00;0.00;;;8.00;99.90;;;;;;5038797;28;20052;-84
2022/04/15 05:27:06;;;;;;;3.95;0.30;;;8.10;99.90;;;;;;5062718;28;20479;-85
2022/04/15 05:29:32;;;;;;;0.00;0.00;;;8.10;99.90;;;;;;5054893;28;20040;-85
2022/04/15 05:31:58;;;;;;;0.25;0.25;;;8.10;99.90;;;;;;5046653;28;20036;-84
2022/04/15 05:34:24;;;;;;;3.25;0.60;;;8.10;99.90;;;;;;5066263;28;20039;-85
2022/04/15 05:36:50;;;;;;;0.00;0.00;;;8.10;99.90;;;;;;5075220;28;20127;-85
2022/04/15 05:39:15;;;;;;;0.00;0.00;;;8.20;99.90;;;;;;5058418;28;20048;-85
2022/04/15 05:41:41;;;;;;;0.08;0.00;;;8.20;99.90;;;;;;5058510;28;20052;-85
2022/04/15 05:44:08;;;;;;;0.00;0.00;;;8.20;99.90;;;;;;5075111;28;20113;-85
2022/04/15 05:46:37;;;;;;;0.10;0.00;;;8.20;99.90;;;;;;5058139;28;20506;-85
2022/04/15 05:49:05;;;;;;;0.00;0.00;;;8.20;99.90;;;;;;5066422;28;20124;-85
2022/04/15 05:51:31;;;;;;;0.00;0.00;;;8.20;99.90;;;;;;5037961;28;20091;-85
2022/04/15 05:53:56;;;;;;;0.10;0.00;;;8.20;99.90;;;;;;5038267;28;20111;-85
2022/04/15 05:56:22;;;;;;;0.00;0.00;;;8.30;99.90;;;;;;5038699;28;20052;-85
2022/04/15 05:58:48;;;;;;;0.10;0.03;;;8.30;99.90;;;;;;5038415;28;20046;-85
2022/04/15 06:01:13;;;;;;;0.00;0.00;;;8.30;99.90;;;;;;5054964;28;20126;-85
2022/04/15 06:03:39;;;;;;;0.30;0.00;;;8.30;99.90;;;;;;5038495;28;20377;-85
2022/04/15 06:06:05;;;;;;;0.00;0.00;;;8.30;99.90;;;;;;5041566;28;20400;-86
2022/04/15 06:08:31;;;;;;;0.00;0.00;;;8.30;99.90;;;;;;5041897;28;20048;-85
2022/04/15 06:10:57;;;;;;;0.05;0.00;;;8.30;99.90;;;;;;5042738;28;20052;-85
2022/04/15 06:13:23;;;;;;;0.00;0.00;;;8.40;99.90;;;;;;5041922;28;20443;-86
2022/04/15 06:15:58;;;;;;;0.00;0.00;;;8.30;99.90;;;;;;5058629;28;20127;-85
2022/04/15 06:18:26;;;;;;;0.00;0.00;;;8.30;99.90;;;;;;5041900;28;20044;-86
2022/04/15 06:20:52;;;;;;;0.98;0.30;;;8.30;99.90;;;;;;5041655;28;20045;-85
2022/04/15 06:23:18;;;;;;;0.00;0.00;;;8.30;99.90;;;;;;5058128;28;20044;-85
2022/04/15 06:25:45;;;;;;;0.00;0.00;;;8.30;99.90;;;;;;5041735;28;20056;-86
2022/04/15 06:28:12;;;;;;;0.00;0.00;;;8.40;99.90;;;;;;5041723;28;20400;-85
2022/04/15 06:30:38;;;;;;;0.00;0.00;;;8.40;99.90;;;;;;5041394;28;20430;-85
2022/04/15 06:33:05;;;;;;;0.00;0.00;;;8.40;99.90;;;;;;5041179;28;20041;-85
2022/04/15 06:35:33;;;;;;;0.00;0.00;;;8.50;99.90;;;;;;5058142;28;20067;-84
2022/04/15 06:37:59;;;;;;;0.00;0.00;;;8.50;99.90;;;;;;5041203;28;20044;-85
2022/04/15 06:40:25;;;;;;;0.00;0.00;;;8.60;99.90;;;;;;5041992;28;20055;-85
2022/04/15 06:42:51;;;;;;;0.00;0.00;;;8.70;99.90;;;;;;5040385;28;20391;-84
2022/04/15 06:45:16;;;;;;;0.00;0.00;;;8.70;99.90;;;;;;5041214;28;20040;-86
2022/04/15 06:47:42;;;;;;;0.00;0.00;;;8.80;99.90;;;;;;5057990;28;20047;-85
2022/04/15 06:50:09;;;;;;;0.00;0.00;;;8.90;99.90;;;;;;5040956;28;20094;-85
2022/04/15 06:52:37;;;;;;;0.47;0.15;;;8.90;99.90;;;;;;5057747;28;20048;-85
2022/04/15 06:55:04;;;;;;;0.32;0.10;;;8.90;99.90;;;;;;5041079;28;20044;-85
2022/04/15 06:57:31;;;;;;;0.70;0.65;;;8.80;99.90;;;;;;5057780;28;20139;-84
2022/04/15 06:59:58;;;;;;;0.98;0.52;;;8.80;99.90;;;;;;5057304;28;20055;-85
2022/04/15 07:02:25;;;;;;;0.00;0.00;;;8.70;99.90;;;;;;5057262;28;20045;-85
2022/04/15 07:04:51;;;;;;;0.00;0.00;;;8.70;99.90;;;;;;5054773;28;20097;-84
2022/04/15 07:07:17;;;;;;;0.00;0.00;;;9.00;99.90;;;;;;5055375;28;20052;-85
2022/04/15 07:09:44;;;;;;;0.00;0.00;;;8.60;99.90;;;;;;5038625;28;20445;-85
2022/04/15 07:12:12;;;;;;;0.10;0.10;;;8.60;99.90;;;;;;5054892;28;20509;-84
2022/04/15 07:14:38;;;;;;;0.45;0.13;;;8.60;99.90;;;;;;5038455;28;20054;-85
2022/04/15 07:17:04;;;;;;;0.00;0.00;;;8.60;99.90;;;;;;5055004;28;20044;-85
2022/04/15 07:19:29;;;;;;;0.00;0.00;;;8.70;99.90;;;;;;5039704;28;20113;-85
2022/04/15 07:21:56;;;;;;;0.10;0.10;;;8.50;99.90;;;;;;5057622;28;20036;-85
2022/04/15 07:24:23;;;;;;;0.05;0.05;;;8.60;99.90;;;;;;5057740;28;20040;-85
2022/04/15 07:26:49;;;;;;;0.00;0.00;;;8.80;99.90;;;;;;5057173;28;20044;-85
2022/04/15 07:29:15;;;;;;;0.00;0.00;;;8.50;99.90;;;;;;5040441;28;20110;-85
2022/04/15 07:31:42;;;;;;;0.00;0.00;;;8.50;99.90;;;;;;5040347;28;20052;-85
2022/04/15 07:34:07;;;;;;;0.22;0.00;;;8.50;99.90;;;;;;5040394;28;20056;-85
2022/04/15 07:39:07;;;;;;;0.20;0.20;;;8.40;99.90;;;;;;5056915;28;20099;-85
2022/04/15 07:41:37;;;;;;;0.00;0.00;;;9.00;99.90;;;;;;5056787;28;20040;-85
2022/04/15 07:44:10;;;;;;;0.10;0.10;;;8.60;99.90;;;;;;5056601;28;20060;-85
2022/04/15 07:46:40;;;;;;;0.03;0.03;;;8.50;99.90;;;;;;5056531;28;20396;-85
2022/04/15 07:49:06;;;;;;;0.00;0.00;;;8.50;99.90;;;;;;5056858;28;20045;-85
2022/04/15 07:51:33;;;;;;;0.00;0.00;;;8.70;99.90;;;;;;5056757;28;20055;-85
2022/04/15 07:53:59;;;;;;;0.00;0.00;;;8.30;99.90;;;;;;5040109;28;20056;-85
2022/04/15 07:56:25;;;;;;;0.10;0.03;;;8.60;99.90;;;;;;5039917;28;20051;-85
2022/04/15 07:58:51;;;;;;;0.30;0.22;;;8.80;99.90;;;;;;5056531;28;20048;-85
2022/04/15 08:01:17;;;;;;;0.00;0.00;;;8.80;99.90;;;;;;5039454;28;20101;-86
2022/04/15 08:03:43;;;;;;;0.00;0.00;;;8.70;99.90;;;;;;5039342;28;20047;-85
2022/04/15 08:06:10;;;;;;;0.28;0.28;;;8.60;99.90;;;;;;5056511;28;20042;-85
2022/04/15 08:08:35;;;;;;;0.38;0.00;;;8.60;99.90;;;;;;5056296;28;20048;-85
2022/04/15 08:11:01;;;;;;;0.10;0.05;;;8.60;99.90;;;;;;5039628;28;20083;-85
2022/04/15 08:13:27;;;;;;;0.17;0.15;;;8.70;99.90;;;;;;5055858;28;20155;-85
2022/04/15 08:15:54;;;;;;;0.00;0.00;;;8.00;99.90;;;;;;5039759;28;20053;-85
2022/04/15 08:18:23;;;;;;;0.10;0.10;;;8.80;99.90;;;;;;5056191;28;20045;-85
2022/04/15 08:20:50;;;;;;;0.77;0.75;;;8.80;99.90;;;;;;5039512;28;20052;-85
2022/04/15 08:23:17;;;;;;;0.00;0.00;;;9.00;99.90;;;;;;5039620;28;20400;-85
2022/04/15 08:25:44;;;;;;;0.08;0.08;;;8.90;99.90;;;;;;5055792;28;20040;-85
2022/04/15 08:28:10;;;;;;;0.00;0.00;;;9.10;99.90;;;;;;5038951;28;20055;-85
2022/04/15 08:30:37;;;;;;;0.00;0.00;;;8.90;99.90;;;;;;5039075;28;20056;-85
2022/04/15 08:33:07;;;;;;;0.00;0.00;;;9.00;99.90;;;;;;5055947;28;20052;-85
2022/04/15 08:35:34;;;;;;;1.95;0.20;;;9.00;99.90;;;;;;5056472;28;20384;-85
2022/04/15 08:38:00;;;;;;;1.88;0.30;;;9.00;99.90;;;;;;5038790;28;20057;-85
2022/04/15 08:40:27;;;;;;;0.20;0.00;;;9.10;99.90;;;;;;5039250;28;20201;-85
2022/04/15 08:42:53;;;;;;;0.70;0.35;;;9.00;99.90;;;;;;5038721;28;20515;-85
2022/04/15 08:45:25;;;;;;;0.00;0.00;;;9.10;99.90;;;;;;5055687;28;20052;-85
2022/04/15 08:47:57;;;;;;;0.15;0.15;;;9.10;99.90;;;;;;5055479;28;20036;-85
2022/04/15 08:50:23;;;;;;;3.95;0.38;;;9.20;99.90;;;;;;5055953;28;20049;-85
2022/04/15 08:52:52;;;;;;;0.20;0.15;;;9.30;99.90;;;;;;5055781;28;20135;-85
2022/04/15 08:55:21;;;;;;;0.52;0.52;;;9.20;99.90;;;;;;5038342;28;20052;-85
2022/04/15 08:57:47;;;;;;;0.00;0.00;;;9.30;99.90;;;;;;5055872;28;20114;-85
2022/04/15 09:00:14;;;;;;;0.00;0.00;;;9.50;99.90;;;;;;5038943;28;20044;-85
2022/04/15 09:02:42;;;;;;;0.03;0.03;;;9.40;99.90;;;;;;5055529;28;20500;-85
2022/04/15 09:05:08;;;;;;;0.00;0.00;;;9.40;99.90;;;;;;5039097;28;20113;-85
2022/04/15 09:07:36;;;;;;;0.30;0.10;;;9.40;99.90;;;;;;5039079;28;20054;-85
2022/04/15 09:10:03;;;;;;;0.30;0.25;;;9.50;99.90;;;;;;5055612;28;20048;-85
2022/04/15 09:12:29;;;;;;;1.17;0.63;;;9.50;99.90;;;;;;5055601;28;20083;-85
2022/04/15 09:15:00;;;;;;;0.10;0.10;;;9.50;99.90;;;;;;5055642;28;20103;-85
2022/04/15 09:17:32;;;;;;;0.13;0.10;;;9.50;99.90;;;;;;5039049;28;20044;-86
2022/04/15 09:19:58;;;;;;;0.00;0.00;;;9.50;99.90;;;;;;5055642;28;20137;-85
2022/04/15 09:22:24;;;;;;;1.38;0.38;;;9.50;99.90;;;;;;5038603;28;20044;-86
2022/04/15 09:24:53;;;;;;;0.10;0.10;;;9.60;99.90;;;;;;5055217;28;20076;-85
2022/04/15 09:27:20;;;;;;;0.10;0.10;;;9.70;99.90;;;;;;5038748;28;20044;-85
2022/04/15 09:29:46;;;;;;;0.32;0.32;;;9.70;99.90;;;;;;5055113;28;20466;-85
2022/04/15 09:32:14;;;;;;;0.30;0.20;;;9.80;99.90;;;;;;5038520;28;20140;-86
2022/04/15 09:34:57;;;;;;;0.20;0.20;;;9.80;99.90;;;;;;5038830;28;20049;-85
2022/04/15 09:37:35;;;;;;;0.30;0.30;;;9.80;99.90;;;;;;5055088;28;20098;-85
2022/04/15 09:40:26;;;;;;;0.10;0.00;;;9.90;99.90;;;;;;5040545;28;20094;-86
2022/04/15 09:42:58;;;;;;;0.38;0.20;;;9.90;99.90;;;;;;5042046;28;20460;-86
2022/04/15 09:45:37;;;;;;;0.10;0.10;;;10.00;99.90;;;;;;5059742;28;20049;-85
2022/04/15 09:48:05;;;;;;;0.50;0.50;;;10.10;99.90;;;;;;5058914;28;20037;-86
2022/04/15 09:50:41;;;;;;;0.00;0.00;;;10.00;99.90;;;;;;5042652;28;20432;-86
2022/04/15 09:53:15;;;;;;;0.00;0.00;;;10.10;99.90;;;;;;5058747;28;20400;-86
2022/04/15 09:55:43;;;;;;;0.55;0.08;;;10.20;99.90;;;;;;5058792;28;20040;-86
2022/04/15 09:58:16;;;;;;;0.20;0.20;;;10.30;99.90;;;;;;5058832;28;20094;-86
2022/04/15 10:00:49;;;;;;;0.10;0.00;;;10.30;99.90;;;;;;5042295;28;20384;-86
2022/04/15 10:03:20;;;;;;;24.92;1.48;;;10.30;99.90;;;;;;5042216;28;20052;-85
2022/04/15 10:05:48;;;;;;;0.15;0.15;;;10.40;99.90;;;;;;5058697;28;20037;-86
2022/04/15 10:08:15;;;;;;;0.00;0.00;;;10.50;99.90;;;;;;5041829;28;20618;-86
2022/04/15 10:10:41;;;;;;;0.00;0.00;;;10.40;99.90;;;;;;5058283;28;20059;-86
2022/04/15 10:13:07;;;;;;;0.82;0.45;;;10.70;99.90;;;;;;5041494;28;20036;-86
2022/04/15 10:15:37;;;;;;;0.13;0.13;;;10.50;99.90;;;;;;5058215;28;20045;-86
2022/04/15 10:18:03;;;;;;;0.08;0.08;;;11.50;99.90;;;;;;5058505;28;20098;-86
2022/04/15 10:20:31;;;;;;;0.05;0.00;;;10.60;99.90;;;;;;5041743;28;20049;-86
2022/04/15 10:23:05;;;;;;;0.00;0.00;;;10.60;99.90;;;;;;5041485;28;20040;-86
2022/04/15 10:25:31;;;;;;;1.10;0.38;;;10.70;99.90;;;;;;5041760;28;20099;-87
2022/04/15 10:28:14;;;;;;;0.10;0.10;;;10.70;99.90;;;;;;5058156;28;20473;-86
2022/04/15 10:30:51;;;;;;;1.02;0.38;;;10.70;99.90;;;;;;5058118;28;20102;-86
2022/04/15 10:33:30;;;;;;;0.00;0.00;;;10.80;99.90;;;;;;5041522;28;20052;-87
2022/04/15 10:36:21;;;;;;;0.00;0.00;;;10.80;99.90;;;;;;5041492;28;20037;-87
2022/04/15 10:39:02;;;;;;;0.20;0.20;;;10.90;99.90;;;;;;5031812;28;20056;-87
2022/04/15 10:41:41;;;;;;;0.00;0.00;;;11.00;99.90;;;;;;5057492;28;20480;-87
2022/04/15 10:44:10;;;;;;;0.20;0.15;;;11.00;99.90;;;;;;5040979;28;20060;-87
2022/04/15 10:46:38;;;;;;;0.00;0.00;;;11.10;99.90;;;;;;5041760;28;20512;-87
2022/04/15 10:49:23;;;;;;;0.00;0.00;;;11.10;99.90;;;;;;5057920;28;20036;-87
2022/04/15 10:51:54;;;;;;;0.00;0.00;;;11.20;99.90;;;;;;5040837;28;20135;-87
2022/04/15 10:54:35;;;;;;;0.40;0.15;;;11.20;99.90;;;;;;5058522;28;20045;-87
2022/04/15 10:57:08;;;;;;;0.10;0.10;;;11.30;99.90;;;;;;5041200;28;20127;-87
2022/04/15 11:02:22;;;;;;;0.70;0.43;;;11.30;99.90;;;;;;5057087;28;20144;-86
2022/04/15 11:04:52;;;;;;;0.00;0.00;;;11.20;99.90;;;;;;5057361;28;20037;-87
2022/04/15 11:07:28;;;;;;;0.00;0.00;;;11.30;99.90;;;;;;5040979;28;20169;-87
2022/04/15 11:09:55;;;;;;;0.00;0.00;;;11.30;99.90;;;;;;5057238;28;20503;-87
2022/04/15 11:12:33;;;;;;;0.10;0.10;;;11.30;99.90;;;;;;5057410;28;20071;-87
2022/04/15 11:14:58;;;;;;;0.00;0.00;;;11.40;99.90;;;;;;5040746;28;20044;-87
2022/04/15 11:17:41;;;;;;;0.00;0.00;;;11.60;99.90;;;;;;5057076;28;20051;-87
2022/04/15 11:20:08;;;;;;;25.95;1.00;;;11.70;99.90;;;;;;5040867;28;20055;-87
2022/04/15 11:22:42;;;;;;;0.00;0.00;;;11.80;99.90;;;;;;5057208;28;20344;-87
2022/04/15 11:25:09;;;;;;;0.00;0.00;;;11.80;99.90;;;;;;5040543;28;20047;-86
2022/04/15 11:27:38;;;;;;;0.65;0.05;;;11.90;99.90;;;;;;5040423;28;20345;-87
2022/04/15 11:30:11;;;;;;;0.00;0.00;;;12.00;99.90;;;;;;5040415;28;20048;-87
2022/04/15 11:32:54;;;;;;;0.00;0.00;;;12.10;99.90;;;;;;5040529;28;20079;-87
2022/04/15 11:35:27;;;;;;;0.10;0.10;;;12.20;99.90;;;;;;5056856;28;20127;-87
2022/04/15 11:37:56;;;;;;;0.55;0.52;;;12.20;99.90;;;;;;5056600;28;20156;-87
2022/04/15 11:40:22;;;;;;;0.10;0.10;;;12.30;99.90;;;;;;5040293;28;20114;-87
2022/04/15 11:42:48;;;;;;;0.00;0.00;;;12.40;99.90;;;;;;5055838;28;20516;-87
2022/04/15 11:45:14;;;;;;;0.05;0.00;;;12.30;99.90;;;;;;5057220;28;20117;-87
2022/04/15 11:47:40;;;;;;;0.00;0.00;;;12.20;99.90;;;;;;5039660;28;20106;-87
2022/04/15 11:50:06;;;;;;;0.00;0.00;;;12.30;99.90;;;;;;5040181;28;20044;-87
2022/04/15 11:52:32;;;;;;;0.00;0.00;;;12.30;99.90;;;;;;5040335;28;20048;-87
2022/04/15 11:54:58;;;;;;;0.08;0.08;;;12.40;99.90;;;;;;5056462;28;20381;-87
2022/04/15 11:57:25;;;;;;;0.20;0.20;;;12.50;99.90;;;;;;5056907;28;20048;-87
2022/04/15 11:59:52;;;;;;;0.00;0.00;;;12.60;99.90;;;;;;5056523;28;20051;-87
2022/04/15 12:02:18;;;;;;;0.00;0.00;;;12.60;99.90;;;;;;5038988;28;20044;-87
2022/04/15 12:04:51;;;;;;;0.00;0.00;;;12.60;99.90;;;;;;5039726;28;20151;-87
2022/04/15 12:07:19;;;;;;;0.00;0.00;;;12.70;99.90;;;;;;5039818;28;20051;-87
2022/04/15 12:09:45;;;;;;;0.00;0.00;;;12.60;99.90;;;;;;5039904;28;20071;-87
2022/04/15 12:12:11;;;;;;;0.08;0.00;;;12.50;99.90;;;;;;5040070;28;20048;-87
2022/04/15 12:14:39;;;;;;;0.00;0.00;;;12.60;99.90;;;;;;5039695;28;20113;-87
2022/04/15 12:17:11;;;;;;;0.00;0.00;;;12.40;99.90;;;;;;5056023;28;20052;-87
2022/04/15 12:19:37;;;;;;;0.05;0.05;;;12.40;99.90;;;;;;5056630;28;20075;-87
2022/04/15 12:22:05;;;;;;;0.03;0.00;;;12.50;99.90;;;;;;5039251;28;20044;-87
2022/04/15 12:24:31;;;;;;;0.10;0.10;;;12.40;99.90;;;;;;5056107;28;20125;-87
2022/04/15 12:27:00;;;;;;;0.00;0.00;;;12.40;99.90;;;;;;5055750;28;20496;-87
2022/04/15 12:32:20;;;;;;;0.10;0.00;;;12.60;99.90;;;;;;5055972;28;20492;-87
2022/04/15 12:34:57;;;;;;;0.10;0.10;;;12.50;99.90;;;;;;5056568;28;20074;-87
2022/04/15 12:37:43;;;;;;;0.10;0.10;;;12.50;99.90;;;;;;5039396;28;20048;-87
2022/04/15 12:40:14;;;;;;;0.20;0.20;;;12.50;99.90;;;;;;5039035;28;20488;-87
2022/04/15 12:42:41;;;;;;;0.22;0.22;;;12.40;99.90;;;;;;5039801;28;20067;-87
2022/04/15 12:45:12;;;;;;;0.00;0.00;;;12.40;99.90;;;;;;5038827;28;20135;-87
2022/04/15 12:47:39;;;;;;;0.00;0.00;;;12.40;99.90;;;;;;5039466;28;20048;-87
2022/04/15 12:50:20;;;;;;;0.45;0.40;;;12.50;99.90;;;;;;5039483;28;20040;-87
2022/04/15 12:52:48;;;;;;;0.15;0.15;;;12.40;99.90;;;;;;5055522;28;20052;-87
2022/04/15 12:55:23;;;;;;;0.00;0.00;;;12.50;99.90;;;;;;5038721;28;20450;-87
2022/04/15 12:57:48;;;;;;;0.00;0.00;;;12.30;99.90;;;;;;5055948;28;20048;-87
2022/04/15 13:00:14;;;;;;;0.10;0.10;;;12.30;99.90;;;;;;5055489;28;20120;-87
2022/04/15 13:02:41;;;;;;;1.15;0.50;;;12.20;99.90;;;;;;5038727;28;20045;-87
2022/04/15 13:05:08;;;;;;;1.67;0.52;;;11.70;99.90;;;;;;5039095;28;20037;-87
2022/04/15 13:07:35;;;;;;;0.88;0.25;;;12.10;99.90;;;;;;5055861;28;20118;-87